createdAt,value
2022-09-02T00:00:20.924Z,27.14
2022-09-02T00:00:43.856Z,27.27
2022-09-02T00:01:13.522Z,27.23
2022-09-02T00:01:39.163Z,27.15
2022-09-02T00:02:01.734Z,27.18
2022-09-02T00:02:24.535Z,27.21
2022-09-02T00:02:49.107Z,27.20
2022-09-02T00:03:11.794Z,27.22
2022-09-02T00:03:36.453Z,27.21
2022-09-02T00:04:00.369Z,27.22
2022-09-02T00:04:25.451Z,27.24
2022-09-02T00:04:48.083Z,27.22
2022-09-02T00:05:09.872Z,27.22
2022-09-02T00:05:31.550Z,27.24
2022-09-02T00:05:53.285Z,27.25
2022-09-02T00:06:15.764Z,27.20
2022-09-02T00:06:38.742Z,27.19
2022-09-02T00:07:00.576Z,27.11
2022-09-02T00:07:22.268Z,27.18
2022-09-02T00:07:43.932Z,27.20
2022-09-02T00:08:07.531Z,27.19
2022-09-02T00:08:31.876Z,27.20
2022-09-02T00:08:54.075Z,27.21
2022-09-02T00:09:19.100Z,27.22
2022-09-02T00:09:40.821Z,27.20
2022-09-02T00:10:02.561Z,27.21
2022-09-02T00:10:24.764Z,27.23
2022-09-02T00:10:46.480Z,27.23
2022-09-02T00:11:10.013Z,27.23
2022-09-02T00:11:33.729Z,27.22
2022-09-02T00:12:52.450Z,27.22
2022-09-02T00:13:16.325Z,27.23
2022-09-02T00:13:38.120Z,27.20
2022-09-02T00:14:02.940Z,27.23
2022-09-02T00:14:28.643Z,27.24
2022-09-02T00:14:50.353Z,27.23
2022-09-02T00:15:12.335Z,27.24
2022-09-02T00:15:34.118Z,27.26
2022-09-02T00:15:56.596Z,27.26
2022-09-02T00:16:18.873Z,27.26
2022-09-02T00:16:42.557Z,27.27
2022-09-02T00:17:05.488Z,27.24
2022-09-02T00:17:28.020Z,27.25
2022-09-02T00:17:49.648Z,27.26
2022-09-02T00:18:15.174Z,27.13
2022-09-02T00:18:39.193Z,27.22
2022-09-02T00:19:02.607Z,27.22
2022-09-02T00:19:25.780Z,27.22
2022-09-02T00:19:50.980Z,27.22
2022-09-02T00:20:14.828Z,27.19
2022-09-02T00:20:36.465Z,27.23
2022-09-02T00:20:58.469Z,27.21
2022-09-02T00:21:20.989Z,27.20
2022-09-02T00:21:43.716Z,27.22
2022-09-02T00:22:05.423Z,27.21
2022-09-02T00:22:27.134Z,27.18
2022-09-02T00:22:48.985Z,27.19
2022-09-02T00:23:11.908Z,27.21
2022-09-02T00:23:35.592Z,27.18
2022-09-02T00:23:57.257Z,27.18
2022-09-02T00:24:19.608Z,27.15
2022-09-02T00:24:42.305Z,27.19
2022-09-02T00:25:04.526Z,27.20
2022-09-02T00:25:26.298Z,27.16
2022-09-02T00:25:48.149Z,27.18
2022-09-02T00:26:10.471Z,27.18
2022-09-02T00:26:33.275Z,27.16
2022-09-02T00:26:56.616Z,27.17
2022-09-02T00:27:18.702Z,27.16
2022-09-02T00:27:40.443Z,27.17
2022-09-02T00:28:05.789Z,27.17
2022-09-02T00:28:29.464Z,27.16
2022-09-02T00:28:56.197Z,27.18
2022-09-02T00:29:18.712Z,27.17
2022-09-02T00:29:40.435Z,27.16
2022-09-02T00:30:03.119Z,27.17
2022-09-02T00:30:24.805Z,27.18
2022-09-02T00:30:46.621Z,27.09
2022-09-02T00:31:08.524Z,27.19
2022-09-02T00:31:33.585Z,27.19
2022-09-02T00:32:31.383Z,27.16
2022-09-02T00:32:53.711Z,27.15
2022-09-02T00:33:16.819Z,27.14
2022-09-02T00:33:39.128Z,27.14
2022-09-02T00:34:00.810Z,27.14
2022-09-02T00:34:22.803Z,27.14
2022-09-02T00:34:45.757Z,27.14
2022-09-02T00:35:09.201Z,27.12
2022-09-02T00:35:31.945Z,27.12
2022-09-02T00:35:53.649Z,27.07
2022-09-02T00:36:15.359Z,27.12
2022-09-02T00:36:38.371Z,27.09
2022-09-02T00:37:00.042Z,27.10
2022-09-02T00:37:21.701Z,27.10
2022-09-02T00:37:43.369Z,27.09
2022-09-02T00:38:06.739Z,27.06
2022-09-02T00:38:31.188Z,27.08
2022-09-02T00:38:53.267Z,27.10
2022-09-02T00:39:15.383Z,27.08
2022-09-02T00:39:37.072Z,27.10
2022-09-02T00:39:59.910Z,27.08
2022-09-02T00:40:23.294Z,27.07
2022-09-02T00:40:47.925Z,27.07
2022-09-02T00:41:10.866Z,27.05
2022-09-02T00:41:34.729Z,27.03
2022-09-02T00:41:57.472Z,27.05
2022-09-02T00:42:19.284Z,27.06
2022-09-02T00:42:41.161Z,27.08
2022-09-02T00:43:08.233Z,27.07
2022-09-02T00:43:42.533Z,27.09
2022-09-02T00:44:07.383Z,26.99
2022-09-02T00:44:29.289Z,27.04
2022-09-02T00:44:51.076Z,27.06
2022-09-02T00:45:12.964Z,27.05
2022-09-02T00:45:38.099Z,27.04
2022-09-02T00:45:59.900Z,27.05
2022-09-02T00:46:24.956Z,27.05
2022-09-02T00:46:48.716Z,27.03
2022-09-02T00:47:11.136Z,27.01
2022-09-02T00:47:33.118Z,27.02
2022-09-02T00:47:55.215Z,27.01
2022-09-02T00:48:17.994Z,26.98
2022-09-02T00:48:43.492Z,26.94
2022-09-02T00:49:09.093Z,26.94
2022-09-02T00:49:34.306Z,26.95
2022-09-02T00:49:56.335Z,26.86
2022-09-02T00:50:21.177Z,26.95
2022-09-02T00:50:43.094Z,26.96
2022-09-02T00:51:06.896Z,26.96
2022-09-02T00:51:33.096Z,26.95
2022-09-02T00:52:01.745Z,26.97
2022-09-02T00:52:29.896Z,26.93
2022-09-02T00:52:56.524Z,26.95
2022-09-02T00:53:18.381Z,26.95
2022-09-02T00:53:43.694Z,26.91
2022-09-02T00:54:06.238Z,26.97
2022-09-02T00:54:31.221Z,26.98
2022-09-02T00:54:56.234Z,26.98
2022-09-02T00:55:20.769Z,27.00
2022-09-02T00:55:46.585Z,26.99
2022-09-02T00:56:13.909Z,26.78
2022-09-02T00:56:38.248Z,26.91
2022-09-02T00:57:04.810Z,26.94
2022-09-02T00:57:32.295Z,26.96
2022-09-02T00:57:59.597Z,26.93
2022-09-02T00:58:25.843Z,26.87
2022-09-02T00:58:50.592Z,26.95
2022-09-02T00:59:17.970Z,26.92
2022-09-02T00:59:46.333Z,26.92
2022-09-02T01:00:16.567Z,26.91
2022-09-02T01:00:42.957Z,26.90
2022-09-02T01:01:05.396Z,26.89
2022-09-02T01:01:28.045Z,26.90
2022-09-02T01:01:51.751Z,26.91
2022-09-02T01:02:13.871Z,26.87
2022-09-02T01:02:37.349Z,26.88
2022-09-02T01:03:01.916Z,26.85
2022-09-02T01:03:28.029Z,26.90
2022-09-02T01:03:50.397Z,26.88
2022-09-02T01:04:12.283Z,26.91
2022-09-02T01:04:35.315Z,26.90
2022-09-02T01:04:58.769Z,26.84
2022-09-02T01:05:23.372Z,26.86
2022-09-02T01:05:47.099Z,26.89
2022-09-02T01:06:11.816Z,26.93
2022-09-02T01:06:34.816Z,26.94
2022-09-02T01:06:56.693Z,26.91
2022-09-02T01:07:18.505Z,26.90
2022-09-02T01:07:40.525Z,26.89
2022-09-02T01:08:03.130Z,26.90
2022-09-02T01:08:30.040Z,26.90
2022-09-02T01:08:58.303Z,26.91
2022-09-02T01:09:20.262Z,26.88
2022-09-02T01:09:42.128Z,26.88
2022-09-02T01:10:07.063Z,26.90
2022-09-02T01:10:34.404Z,26.84
2022-09-02T01:10:56.963Z,26.89
2022-09-02T01:11:21.279Z,26.87
2022-09-02T01:11:47.930Z,26.88
2022-09-02T01:12:12.660Z,26.83
2022-09-02T01:12:35.680Z,26.84
2022-09-02T01:12:59.444Z,26.83
2022-09-02T01:13:25.144Z,26.83
2022-09-02T01:13:47.524Z,26.82
2022-09-02T01:14:12.388Z,26.84
2022-09-02T01:14:35.392Z,26.83
2022-09-02T01:14:57.511Z,26.80
2022-09-02T01:15:19.136Z,26.81
2022-09-02T01:15:44.041Z,26.81
2022-09-02T01:16:11.642Z,26.83
2022-09-02T01:16:42.043Z,26.82
2022-09-02T01:17:06.957Z,26.78
2022-09-02T01:17:28.897Z,26.81
2022-09-02T01:17:51.719Z,26.82
2022-09-02T01:18:28.865Z,26.85
2022-09-02T01:18:53.815Z,26.81
2022-09-02T01:19:21.752Z,26.79
2022-09-02T01:19:47.788Z,26.81
2022-09-02T01:20:13.212Z,26.79
2022-09-02T01:20:35.137Z,26.76
2022-09-02T01:20:59.612Z,26.81
2022-09-02T01:21:24.136Z,26.80
2022-09-02T01:21:48.552Z,26.81
2022-09-02T01:22:16.196Z,26.82
2022-09-02T01:22:41.594Z,26.80
2022-09-02T01:23:03.315Z,26.79
2022-09-02T01:23:25.533Z,26.78
2022-09-02T01:23:48.737Z,26.76
2022-09-02T01:24:11.471Z,26.79
2022-09-02T01:24:34.652Z,26.76
2022-09-02T01:24:59.918Z,26.78
2022-09-02T01:25:25.477Z,26.80
2022-09-02T01:25:48.298Z,26.78
2022-09-02T01:26:10.721Z,26.74
2022-09-02T01:26:32.572Z,26.74
2022-09-02T01:26:57.096Z,26.74
2022-09-02T01:27:22.174Z,26.70
2022-09-02T01:27:44.256Z,26.62
2022-09-02T01:28:09.099Z,26.72
2022-09-02T01:28:33.393Z,26.67
2022-09-02T01:28:58.965Z,26.65
2022-09-02T01:29:20.903Z,26.54
2022-09-02T01:29:42.840Z,26.56
2022-09-02T01:30:11.758Z,26.58
2022-09-02T01:30:36.429Z,26.59
2022-09-02T01:30:58.070Z,26.58
2022-09-02T01:31:19.852Z,26.61
2022-09-02T01:31:41.620Z,26.60
2022-09-02T01:32:04.501Z,26.59
2022-09-02T01:32:28.677Z,26.56
2022-09-02T01:32:50.794Z,26.42
2022-09-02T01:33:12.499Z,26.57
2022-09-02T01:33:35.568Z,26.56
2022-09-02T01:33:57.987Z,26.57
2022-09-02T01:34:21.146Z,26.57
2022-09-02T01:34:42.805Z,26.58
2022-09-02T01:35:05.666Z,26.45
2022-09-02T01:35:28.405Z,26.52
2022-09-02T01:35:50.570Z,26.49
2022-09-02T01:36:12.311Z,26.48
2022-09-02T01:36:38.120Z,26.46
2022-09-02T01:37:02.379Z,26.50
2022-09-02T01:37:24.159Z,26.51
2022-09-02T01:37:54.713Z,26.51
2022-09-02T01:38:27.828Z,26.53
2022-09-02T01:38:50.552Z,26.52
2022-09-02T01:39:14.028Z,26.50
2022-09-02T01:39:35.952Z,26.54
2022-09-02T01:39:58.826Z,26.54
2022-09-02T01:40:20.600Z,26.54
2022-09-02T01:40:44.007Z,26.52
2022-09-02T01:41:06.579Z,26.53
2022-09-02T01:41:28.215Z,26.52
2022-09-02T01:41:50.955Z,26.56
2022-09-02T01:42:14.612Z,26.54
2022-09-02T01:42:39.697Z,26.56
2022-09-02T01:43:07.116Z,26.49
2022-09-02T01:43:29.775Z,26.56
2022-09-02T01:43:52.421Z,26.57
2022-09-02T01:44:16.075Z,26.59
2022-09-02T01:44:43.909Z,26.58
2022-09-02T01:45:08.832Z,26.56
2022-09-02T01:45:30.561Z,26.60
2022-09-02T01:45:56.209Z,26.60
2022-09-02T01:46:20.353Z,26.58
2022-09-02T01:46:42.165Z,26.57
2022-09-02T01:47:04.488Z,26.54
2022-09-02T01:47:27.522Z,26.56
2022-09-02T01:47:50.908Z,26.58
2022-09-02T01:48:14.003Z,26.59
2022-09-02T01:48:42.972Z,26.57
2022-09-02T01:49:06.470Z,26.56
2022-09-02T01:49:28.157Z,26.56
2022-09-02T01:49:51.139Z,26.59
2022-09-02T01:50:13.136Z,26.58
2022-09-02T01:50:37.236Z,26.57
2022-09-02T01:51:02.216Z,26.56
2022-09-02T01:51:24.274Z,26.59
2022-09-02T01:51:46.769Z,26.58
2022-09-02T01:52:10.033Z,26.57
2022-09-02T01:52:33.323Z,26.57
2022-09-02T01:52:56.858Z,26.57
2022-09-02T01:53:18.699Z,26.53
2022-09-02T01:53:40.465Z,26.56
2022-09-02T01:54:02.573Z,26.57
2022-09-02T01:54:25.216Z,26.57
2022-09-02T01:54:47.428Z,26.57
2022-09-02T01:55:09.632Z,26.57
2022-09-02T01:55:31.772Z,26.57
2022-09-02T01:55:54.748Z,26.58
2022-09-02T01:56:17.073Z,26.48
2022-09-02T01:56:39.152Z,26.56
2022-09-02T01:57:01.263Z,26.50
2022-09-02T01:57:24.621Z,26.58
2022-09-02T01:57:47.521Z,26.58
2022-09-02T01:58:10.090Z,26.47
2022-09-02T01:58:31.847Z,26.57
2022-09-02T01:58:55.056Z,26.57
2022-09-02T01:59:17.977Z,26.57
2022-09-02T01:59:39.700Z,26.58
2022-09-02T02:00:04.152Z,26.60
2022-09-02T02:00:34.750Z,26.50
2022-09-02T02:00:56.812Z,26.58
2022-09-02T02:01:19.511Z,26.57
2022-09-02T02:01:41.849Z,26.59
2022-09-02T02:02:05.127Z,26.58
2022-09-02T02:02:28.490Z,26.54
2022-09-02T02:02:51.731Z,26.58
2022-09-02T02:03:13.817Z,26.57
2022-09-02T02:03:35.827Z,26.57
2022-09-02T02:03:59.761Z,26.54
2022-09-02T02:04:24.628Z,26.54
2022-09-02T02:04:49.428Z,26.56
2022-09-02T02:05:11.814Z,26.53
2022-09-02T02:05:34.793Z,26.52
2022-09-02T02:05:58.610Z,26.52
2022-09-02T02:06:20.649Z,26.53
2022-09-02T02:06:44.405Z,26.53
2022-09-02T02:07:07.133Z,26.51
2022-09-02T02:07:31.913Z,26.53
2022-09-02T02:07:54.298Z,26.55
2022-09-02T02:08:16.511Z,26.56
2022-09-02T02:08:38.650Z,26.54
2022-09-02T02:09:01.336Z,26.52
2022-09-02T02:09:23.588Z,26.53
2022-09-02T02:09:46.889Z,26.53
2022-09-02T02:10:11.751Z,26.53
2022-09-02T02:10:35.222Z,26.52
2022-09-02T02:10:57.388Z,26.53
2022-09-02T02:11:20.643Z,26.53
2022-09-02T02:11:45.799Z,26.51
2022-09-02T02:12:12.815Z,26.52
2022-09-02T02:12:34.537Z,26.53
2022-09-02T02:13:00.096Z,26.48
2022-09-02T02:13:24.219Z,26.52
2022-09-02T02:13:48.468Z,26.51
2022-09-02T02:14:10.857Z,26.52
2022-09-02T02:14:39.548Z,26.52
2022-09-02T02:15:02.190Z,26.49
2022-09-02T02:15:46.439Z,26.50
2022-09-02T02:16:08.203Z,26.49
2022-09-02T02:16:30.214Z,26.47
2022-09-02T02:16:52.921Z,26.47
2022-09-02T02:17:14.667Z,26.38
2022-09-02T02:17:36.711Z,26.46
2022-09-02T02:18:00.445Z,26.39
2022-09-02T02:18:23.257Z,26.46
2022-09-02T02:18:47.974Z,26.44
2022-09-02T02:19:09.703Z,26.42
2022-09-02T02:19:31.852Z,26.44
2022-09-02T02:19:54.148Z,26.45
2022-09-02T02:20:18.996Z,26.46
2022-09-02T02:20:40.715Z,26.45
2022-09-02T02:21:06.536Z,26.46
2022-09-02T02:21:28.378Z,26.46
2022-09-02T02:21:51.331Z,26.44
2022-09-02T02:22:13.968Z,26.41
2022-09-02T02:22:37.728Z,26.43
2022-09-02T02:22:59.460Z,26.43
2022-09-02T02:23:22.444Z,26.45
2022-09-02T02:23:44.215Z,26.47
2022-09-02T02:24:07.884Z,26.47
2022-09-02T02:24:29.792Z,26.46
2022-09-02T02:24:51.527Z,26.44
2022-09-02T02:25:16.034Z,26.44
2022-09-02T02:25:37.976Z,26.45
2022-09-02T02:26:00.209Z,26.43
2022-09-02T02:26:21.903Z,26.42
2022-09-02T02:26:43.577Z,26.39
2022-09-02T02:27:06.622Z,26.35
2022-09-02T02:27:28.375Z,26.41
2022-09-02T02:27:51.278Z,26.41
2022-09-02T02:28:16.410Z,26.41
2022-09-02T02:28:38.348Z,26.39
2022-09-02T02:29:00.660Z,26.36
2022-09-02T02:29:23.668Z,26.35
2022-09-02T02:29:46.007Z,26.35
2022-09-02T02:30:10.064Z,26.33
2022-09-02T02:30:32.385Z,26.26
2022-09-02T02:30:55.817Z,26.33
2022-09-02T02:31:17.583Z,26.35
2022-09-02T02:31:42.263Z,26.31
2022-09-02T02:32:07.384Z,26.31
2022-09-02T02:32:29.182Z,26.18
2022-09-02T02:32:52.051Z,26.34
2022-09-02T02:33:15.620Z,26.33
2022-09-02T02:33:38.316Z,26.28
2022-09-02T02:34:00.421Z,26.33
2022-09-02T02:34:23.404Z,26.30
2022-09-02T02:34:45.519Z,26.28
2022-09-02T02:35:08.252Z,26.24
2022-09-02T02:35:30.171Z,26.22
2022-09-02T02:35:53.490Z,26.10
2022-09-02T02:36:18.207Z,26.19
2022-09-02T02:36:40.417Z,26.20
2022-09-02T02:37:02.129Z,26.22
2022-09-02T02:37:25.633Z,26.23
2022-09-02T02:37:51.326Z,26.18
2022-09-02T02:38:14.401Z,26.23
2022-09-02T02:38:39.098Z,26.25
2022-09-02T02:39:01.532Z,26.23
2022-09-02T02:39:24.503Z,26.20
2022-09-02T02:39:46.451Z,26.24
2022-09-02T02:40:10.229Z,26.23
2022-09-02T02:40:32.116Z,26.24
2022-09-02T02:40:57.446Z,26.24
2022-09-02T02:41:20.669Z,26.26
2022-09-02T02:41:44.601Z,26.25
2022-09-02T02:42:08.100Z,26.19
2022-09-02T02:42:30.849Z,26.25
2022-09-02T02:42:53.971Z,26.23
2022-09-02T02:43:17.536Z,26.26
2022-09-02T02:43:40.608Z,26.27
2022-09-02T02:44:02.604Z,26.28
2022-09-02T02:44:24.397Z,26.27
2022-09-02T02:44:46.212Z,26.28
2022-09-02T02:45:14.979Z,26.27
2022-09-02T02:45:37.433Z,26.28
2022-09-02T02:45:59.286Z,26.28
2022-09-02T02:46:21.461Z,26.27
2022-09-02T02:46:43.818Z,26.23
2022-09-02T02:47:08.337Z,26.30
2022-09-02T02:47:30.065Z,26.28
2022-09-02T02:47:52.755Z,26.30
2022-09-02T02:48:16.480Z,26.29
2022-09-02T02:48:39.071Z,26.26
2022-09-02T02:49:01.508Z,26.32
2022-09-02T02:49:23.336Z,26.28
2022-09-02T02:49:45.958Z,26.25
2022-09-02T02:50:10.516Z,26.26
2022-09-02T02:50:32.188Z,26.26
2022-09-02T02:50:53.977Z,26.24
2022-09-02T02:51:16.904Z,26.25
2022-09-02T02:51:40.024Z,26.26
2022-09-02T02:52:01.769Z,26.28
2022-09-02T02:52:23.638Z,26.27
2022-09-02T02:52:48.757Z,26.25
2022-09-02T02:53:13.437Z,26.19
2022-09-02T02:53:36.889Z,26.28
2022-09-02T02:53:59.860Z,26.26
2022-09-02T02:54:23.756Z,26.23
2022-09-02T02:54:49.303Z,26.28
2022-09-02T02:55:13.776Z,26.31
2022-09-02T02:55:36.631Z,26.28
2022-09-02T02:55:58.374Z,26.28
2022-09-02T02:56:20.043Z,26.27
2022-09-02T02:56:42.450Z,26.28
2022-09-02T02:57:06.649Z,26.30
2022-09-02T02:57:28.507Z,26.28
2022-09-02T02:57:51.845Z,26.26
2022-09-02T02:58:16.547Z,26.09
2022-09-02T02:58:39.464Z,26.27
2022-09-02T02:59:03.969Z,26.27
2022-09-02T02:59:27.283Z,26.28
2022-09-02T02:59:48.953Z,26.29
2022-09-02T03:00:14.079Z,26.30
2022-09-02T03:00:37.386Z,26.31
2022-09-02T03:01:00.876Z,26.31
2022-09-02T03:01:23.997Z,26.28
2022-09-02T03:01:46.892Z,26.30
2022-09-02T03:02:09.268Z,26.25
2022-09-02T03:02:33.275Z,26.30
2022-09-02T03:02:56.229Z,26.23
2022-09-02T03:03:19.621Z,26.21
2022-09-02T03:03:44.800Z,26.25
2022-09-02T03:04:06.910Z,26.25
2022-09-02T03:04:28.885Z,26.12
2022-09-02T03:04:54.150Z,26.12
2022-09-02T03:05:17.081Z,26.14
2022-09-02T03:05:42.063Z,26.16
2022-09-02T03:06:03.989Z,26.13
2022-09-02T03:06:26.810Z,26.18
2022-09-02T03:06:50.964Z,26.19
2022-09-02T03:07:13.637Z,26.18
2022-09-02T03:07:35.423Z,26.21
2022-09-02T03:07:59.762Z,26.19
2022-09-02T03:08:25.662Z,26.21
2022-09-02T03:08:48.870Z,26.23
2022-09-02T03:09:13.592Z,26.20
2022-09-02T03:09:35.978Z,26.16
2022-09-02T03:09:57.787Z,26.13
2022-09-02T03:10:22.217Z,26.14
2022-09-02T03:10:44.125Z,26.10
2022-09-02T03:11:07.073Z,26.19
2022-09-02T03:11:32.691Z,26.20
2022-09-02T03:11:55.444Z,26.21
2022-09-02T03:12:17.956Z,26.20
2022-09-02T03:12:40.581Z,26.23
2022-09-02T03:13:03.214Z,26.25
2022-09-02T03:13:26.717Z,26.26
2022-09-02T03:13:52.410Z,26.25
2022-09-02T03:14:14.386Z,26.27
2022-09-02T03:14:37.225Z,26.26
2022-09-02T03:14:59.053Z,26.24
2022-09-02T03:15:22.588Z,26.25
2022-09-02T03:15:48.116Z,26.25
2022-09-02T03:16:10.338Z,26.25
2022-09-02T03:16:34.624Z,26.23
2022-09-02T03:16:57.645Z,26.28
2022-09-02T03:17:19.731Z,26.27
2022-09-02T03:17:42.018Z,26.21
2022-09-02T03:18:03.972Z,26.26
2022-09-02T03:18:25.886Z,26.23
2022-09-02T03:18:48.961Z,26.24
2022-09-02T03:19:14.014Z,26.23
2022-09-02T03:19:35.951Z,26.23
2022-09-02T03:19:59.341Z,26.25
2022-09-02T03:20:26.304Z,26.15
2022-09-02T03:20:52.240Z,26.22
2022-09-02T03:21:15.997Z,26.22
2022-09-02T03:21:39.461Z,26.22
2022-09-02T03:22:04.654Z,26.20
2022-09-02T03:22:26.977Z,26.22
2022-09-02T03:22:50.495Z,26.24
2022-09-02T03:23:13.103Z,26.14
2022-09-02T03:23:39.725Z,26.23
2022-09-02T03:24:03.834Z,26.19
2022-09-02T03:24:25.522Z,26.19
2022-09-02T03:24:47.531Z,26.19
2022-09-02T03:25:11.414Z,26.20
2022-09-02T03:25:36.376Z,26.13
2022-09-02T03:26:11.086Z,26.15
2022-09-02T03:26:33.452Z,26.17
2022-09-02T03:26:56.156Z,26.18
2022-09-02T03:27:17.816Z,26.18
2022-09-02T03:27:41.039Z,26.17
2022-09-02T03:28:03.882Z,26.17
2022-09-02T03:28:26.941Z,26.17
2022-09-02T03:28:49.633Z,26.16
2022-09-02T03:29:12.057Z,26.17
2022-09-02T03:29:33.756Z,26.17
2022-09-02T03:29:56.728Z,26.18
2022-09-02T03:30:22.226Z,26.15
2022-09-02T03:30:45.963Z,26.16
2022-09-02T03:31:14.669Z,26.13
2022-09-02T03:31:37.522Z,26.12
2022-09-02T03:31:59.281Z,26.14
2022-09-02T03:32:23.292Z,26.14
2022-09-02T03:32:48.953Z,26.08
2022-09-02T03:33:10.780Z,26.12
2022-09-02T03:33:33.752Z,26.10
2022-09-02T03:33:55.617Z,26.12
2022-09-02T03:34:18.029Z,26.11
2022-09-02T03:34:41.684Z,26.12
2022-09-02T03:35:04.944Z,26.13
2022-09-02T03:35:27.850Z,26.13
2022-09-02T03:35:49.541Z,26.12
2022-09-02T03:36:21.207Z,26.13
2022-09-02T03:36:44.714Z,26.02
2022-09-02T03:37:09.438Z,26.13
2022-09-02T03:37:32.009Z,26.12
2022-09-02T03:37:55.426Z,26.13
2022-09-02T03:38:19.813Z,26.11
2022-09-02T03:38:42.846Z,26.12
2022-09-02T03:39:10.002Z,26.12
2022-09-02T03:39:33.007Z,26.12
2022-09-02T03:39:54.635Z,26.12
2022-09-02T03:40:18.884Z,26.12
2022-09-02T03:40:42.493Z,26.11
2022-09-02T03:41:04.247Z,26.10
2022-09-02T03:41:27.015Z,26.11
2022-09-02T03:41:50.327Z,26.10
2022-09-02T03:42:19.295Z,26.13
2022-09-02T03:42:43.301Z,26.12
2022-09-02T03:43:09.597Z,26.10
2022-09-02T03:43:31.873Z,26.10
2022-09-02T03:43:53.543Z,26.11
2022-09-02T03:44:15.331Z,26.11
2022-09-02T03:44:41.088Z,26.11
2022-09-02T03:45:03.662Z,26.11
2022-09-02T03:45:25.419Z,26.07
2022-09-02T03:45:47.684Z,26.12
2022-09-02T03:46:10.208Z,26.11
2022-09-02T03:46:33.179Z,26.11
2022-09-02T03:46:55.192Z,26.10
2022-09-02T03:47:20.765Z,26.10
2022-09-02T03:47:51.248Z,26.10
2022-09-02T03:48:16.248Z,26.10
2022-09-02T03:48:40.032Z,26.12
2022-09-02T03:49:03.407Z,26.11
2022-09-02T03:49:27.756Z,26.11
2022-09-02T03:49:50.698Z,26.12
2022-09-02T03:50:12.707Z,26.01
2022-09-02T03:50:39.315Z,26.09
2022-09-02T03:51:03.211Z,26.01
2022-09-02T03:51:26.407Z,26.06
2022-09-02T03:51:48.357Z,26.07
2022-09-02T03:52:11.004Z,26.07
2022-09-02T03:52:34.576Z,26.05
2022-09-02T03:52:56.713Z,26.04
2022-09-02T03:53:22.984Z,25.98
2022-09-02T03:53:53.279Z,25.99
2022-09-02T03:54:15.611Z,26.01
2022-09-02T03:54:37.340Z,26.00
2022-09-02T03:54:59.031Z,26.01
2022-09-02T03:55:22.756Z,26.00
2022-09-02T03:55:45.463Z,26.03
2022-09-02T03:56:11.970Z,26.02
2022-09-02T03:56:35.081Z,26.04
2022-09-02T03:56:57.483Z,26.02
2022-09-02T03:57:23.007Z,26.04
2022-09-02T03:57:44.844Z,25.98
2022-09-02T03:58:08.516Z,26.02
2022-09-02T03:58:32.847Z,25.96
2022-09-02T03:58:56.361Z,26.02
2022-09-02T03:59:20.832Z,25.97
2022-09-02T03:59:42.792Z,26.04
2022-09-02T04:00:08.044Z,26.03
2022-09-02T04:00:36.381Z,26.01
2022-09-02T04:00:59.613Z,26.02
2022-09-02T04:01:25.184Z,26.01
2022-09-02T04:01:50.258Z,26.01
2022-09-02T04:02:12.221Z,26.01
2022-09-02T04:02:34.493Z,25.99
2022-09-02T04:02:57.495Z,26.00
2022-09-02T04:03:20.596Z,25.94
2022-09-02T04:03:43.711Z,25.99
2022-09-02T04:04:06.333Z,25.99
2022-09-02T04:04:31.184Z,25.97
2022-09-02T04:04:52.921Z,25.99
2022-09-02T04:05:15.930Z,25.98
2022-09-02T04:05:37.943Z,25.88
2022-09-02T04:06:00.251Z,25.98
2022-09-02T04:06:26.239Z,25.98
2022-09-02T04:06:55.188Z,25.98
2022-09-02T04:07:16.967Z,25.96
2022-09-02T04:07:39.669Z,25.98
2022-09-02T04:08:02.824Z,25.97
2022-09-02T04:08:25.955Z,25.96
2022-09-02T04:08:51.228Z,25.95
2022-09-02T04:09:12.989Z,25.96
2022-09-02T04:09:36.513Z,25.96
2022-09-02T04:09:58.740Z,25.95
2022-09-02T04:10:21.955Z,25.94
2022-09-02T04:10:44.571Z,25.93
2022-09-02T04:11:08.359Z,25.92
2022-09-02T04:11:31.668Z,25.96
2022-09-02T04:11:54.257Z,25.95
2022-09-02T04:12:15.916Z,25.99
2022-09-02T04:12:37.836Z,25.98
2022-09-02T04:13:01.011Z,25.91
2022-09-02T04:13:22.849Z,25.95
2022-09-02T04:13:45.551Z,25.93
2022-09-02T04:14:11.175Z,25.97
2022-09-02T04:14:33.132Z,25.92
2022-09-02T04:14:55.084Z,25.96
2022-09-02T04:15:20.270Z,25.92
2022-09-02T04:15:47.767Z,25.96
2022-09-02T04:16:13.835Z,25.99
2022-09-02T04:16:36.095Z,25.98
2022-09-02T04:17:01.317Z,25.97
2022-09-02T04:17:23.226Z,25.96
2022-09-02T04:17:44.971Z,25.95
2022-09-02T04:18:09.655Z,25.95
2022-09-02T04:18:31.318Z,25.96
2022-09-02T04:18:54.374Z,25.96
2022-09-02T04:19:16.771Z,25.95
2022-09-02T04:19:40.254Z,25.93
2022-09-02T04:20:02.356Z,25.94
2022-09-02T04:20:26.011Z,25.91
2022-09-02T04:20:48.042Z,25.89
2022-09-02T04:21:10.795Z,25.92
2022-09-02T04:21:36.382Z,25.91
2022-09-02T04:21:58.321Z,25.92
2022-09-02T04:22:20.224Z,25.93
2022-09-02T04:22:41.946Z,25.95
2022-09-02T04:23:04.828Z,25.93
2022-09-02T04:23:28.222Z,25.96
2022-09-02T04:23:52.526Z,25.89
2022-09-02T04:24:16.362Z,25.95
2022-09-02T04:24:41.547Z,25.95
2022-09-02T04:25:04.532Z,25.95
2022-09-02T04:25:28.032Z,25.92
2022-09-02T04:25:51.277Z,25.93
2022-09-02T04:26:14.938Z,25.94
2022-09-02T04:26:37.563Z,25.94
2022-09-02T04:27:06.505Z,25.94
2022-09-02T04:27:30.707Z,25.95
2022-09-02T04:27:53.444Z,25.96
2022-09-02T04:28:17.217Z,25.95
2022-09-02T04:28:39.318Z,25.93
2022-09-02T04:29:01.141Z,25.94
2022-09-02T04:29:26.233Z,25.85
2022-09-02T04:29:48.557Z,25.99
2022-09-02T04:30:13.300Z,25.99
2022-09-02T04:30:39.032Z,25.93
2022-09-02T04:31:04.561Z,25.91
2022-09-02T04:31:28.669Z,25.94
2022-09-02T04:31:50.664Z,25.94
2022-09-02T04:32:13.674Z,25.95
2022-09-02T04:32:39.859Z,25.92
2022-09-02T04:33:03.172Z,25.91
2022-09-02T04:33:24.851Z,25.92
2022-09-02T04:33:48.368Z,25.94
2022-09-02T04:34:11.781Z,25.97
2022-09-02T04:34:34.757Z,25.97
2022-09-02T04:34:56.527Z,25.97
2022-09-02T04:35:18.690Z,25.95
2022-09-02T04:35:41.871Z,25.96
2022-09-02T04:36:05.720Z,25.94
2022-09-02T04:36:29.067Z,25.95
2022-09-02T04:36:55.428Z,25.96
2022-09-02T04:37:17.089Z,25.94
2022-09-02T04:37:39.525Z,25.94
2022-09-02T04:38:02.944Z,25.88
2022-09-02T04:38:25.461Z,25.93
2022-09-02T04:38:48.983Z,25.89
2022-09-02T04:39:13.759Z,25.92
2022-09-02T04:39:35.669Z,25.92
2022-09-02T04:39:58.312Z,25.87
2022-09-02T04:40:20.273Z,25.89
2022-09-02T04:40:46.678Z,25.91
2022-09-02T04:41:10.459Z,25.89
2022-09-02T04:41:32.314Z,25.90
2022-09-02T04:41:57.620Z,25.89
2022-09-02T04:42:21.713Z,25.88
2022-09-02T04:42:43.648Z,25.91
2022-09-02T04:43:06.114Z,25.89
2022-09-02T04:43:28.345Z,25.89
2022-09-02T04:43:51.986Z,25.90
2022-09-02T04:44:14.353Z,25.89
2022-09-02T04:44:39.586Z,25.90
2022-09-02T04:45:02.507Z,25.83
2022-09-02T04:45:29.786Z,25.92
2022-09-02T04:45:52.318Z,25.91
2022-09-02T04:46:16.268Z,25.92
2022-09-02T04:46:40.039Z,25.84
2022-09-02T04:47:06.916Z,25.92
2022-09-02T04:47:28.603Z,25.95
2022-09-02T04:47:51.036Z,25.82
2022-09-02T04:48:13.898Z,25.86
2022-09-02T04:48:37.113Z,25.87
2022-09-02T04:49:00.228Z,25.89
2022-09-02T04:49:22.108Z,25.86
2022-09-02T04:49:47.276Z,25.85
2022-09-02T04:50:09.242Z,25.85
2022-09-02T04:50:33.065Z,25.87
2022-09-02T04:50:55.220Z,25.84
2022-09-02T04:51:19.635Z,25.82
2022-09-02T04:51:43.074Z,25.87
2022-09-02T04:52:06.644Z,25.80
2022-09-02T04:52:28.484Z,25.88
2022-09-02T04:52:50.963Z,25.88
2022-09-02T04:53:12.783Z,25.87
2022-09-02T04:53:36.255Z,25.88
2022-09-02T04:53:59.782Z,25.86
2022-09-02T04:54:22.892Z,25.85
2022-09-02T04:54:45.829Z,25.85
2022-09-02T04:55:08.868Z,25.85
2022-09-02T04:55:32.011Z,25.87
2022-09-02T04:55:57.915Z,25.87
2022-09-02T04:56:23.296Z,25.86
2022-09-02T04:56:46.150Z,25.84
2022-09-02T04:57:08.569Z,25.87
2022-09-02T04:57:30.980Z,25.85
2022-09-02T04:57:53.195Z,25.86
2022-09-02T04:58:17.032Z,25.76
2022-09-02T04:58:43.951Z,25.78
2022-09-02T04:59:07.161Z,25.83
2022-09-02T04:59:29.725Z,25.82
2022-09-02T04:59:58.259Z,25.82
2022-09-02T05:00:20.789Z,25.78
2022-09-02T05:00:43.395Z,25.75
2022-09-02T05:01:09.778Z,25.73
2022-09-02T05:01:34.611Z,25.76
2022-09-02T05:02:01.362Z,25.75
2022-09-02T05:02:26.286Z,25.76
2022-09-02T05:02:48.069Z,25.77
2022-09-02T05:03:11.749Z,25.79
2022-09-02T05:03:35.663Z,25.80
2022-09-02T05:03:58.321Z,25.82
2022-09-02T05:04:25.600Z,25.80
2022-09-02T05:04:48.169Z,25.84